Aérodrome :
LOGIN :

S'inscrire | Disclaimer

   EN    FR    IT 

 










Légende :    VFR   VFR Marginal   IFR   IFR Intensif   IFR Très Intensif
Visi : 
Plafond : 
>= 8 km
>= 3000ft
5 à 8 km
1000 à 3000 ft
1500m à 5 km
500 à 1000 ft
800 à 1500m
200 à 500 ft
< 800m
< 200 ft
Symboles :   Orages  Brouillard  Fortes neiges  Fortes précipitations  Vent > 20 kt
SIGMETs :   Divers  Orages  Givrage  Turbulence  Onde Orograph.  Cendres Volcan.






- Altitude de l'aérodrome : 12 ft
- Code IATA : CQF


LFAC - Calais

DERNIER METAR :
  • 161300Z AUTO 25022KT 9999 BKN018 OVC027 19/15 Q1010

METARs EXPIRÉS :
  • 161230Z AUTO 24024KT 9999 BKN019 OVC031 18/15 Q1010
  • 161200Z AUTO 24018KT 9999 BKN018 BKN023 OVC034 18/15 Q1010
  • 161130Z AUTO 23018KT 9999 BKN017 BKN024 OVC037 18/16 Q1010
  • 161100Z AUTO 23014KT 9999 BKN015 BKN022 OVC028 17/15 Q1010
  • 161030Z AUTO 23017KT 190V250 9999 4400 BKN020/// BKN026/// BKN034/// ///TCU 17/14 Q1009
  • 161000Z AUTO 23018KT 9999 BKN019 BKN024 BKN074 18/14 Q1009
  • 160930Z AUTO 24017KT 9999 SCT019/// BKN026/// BKN034/// ///TCU 18/14 Q1009
  • 160900Z AUTO 23012KT 9999 BKN019/// BKN026/// BKN033/// ///CB 18/14 Q1009
  • 160830Z AUTO 24012KT 210V270 9999 BKN019/// BKN027/// BKN032/// ///CB 17/13 Q1009
  • 160800Z AUTO 24016KT 9999 BKN019/// BKN100/// ///CB 18/14 Q1008

TAF N/A
ATIS : +33 3 21 00 11 14



MET'MAP, la Météo Aéronautique d'un coup d'oeil ! - Copyright ORBIFLY Décembre 2007 - Disclaimer

ORBIFLY MET'MAP TEAM :

Programmation & Développement : Alexandra Zaïnal
Sur une idée originale de : Baudouin d'Aumeries
Soutien technique & logistique : Manuel Goepfert
Assistance : Marc-Olivier Méhu




SOURCES & CREDITS :

   NOAA